sensor_id;sensor_type;location;lat;lon;timestamp;temperature;humidity
21425;DHT22;10873;51.132;16.848;2023-02-11T00:00:31;23.30;44.00
21425;DHT22;10873;51.132;16.848;2023-02-11T00:03:17;23.40;44.00
21425;DHT22;10873;51.132;16.848;2023-02-11T00:05:43;23.40;44.00
21425;DHT22;10873;51.132;16.848;2023-02-11T00:08:09;23.40;43.90
21425;DHT22;10873;51.132;16.848;2023-02-11T00:10:41;23.40;43.90
21425;DHT22;10873;51.132;16.848;2023-02-11T00:13:09;23.40;44.00
21425;DHT22;10873;51.132;16.848;2023-02-11T00:15:36;23.40;44.00
21425;DHT22;10873;51.132;16.848;2023-02-11T00:18:02;23.40;44.10
21425;DHT22;10873;51.132;16.848;2023-02-11T00:20:28;23.40;44.10
21425;DHT22;10873;51.132;16.848;2023-02-11T00:22:54;23.40;44.00
21425;DHT22;10873;51.132;16.848;2023-02-11T00:25:20;23.40;44.00
21425;DHT22;10873;51.132;16.848;2023-02-11T00:27:46;23.40;44.00
21425;DHT22;10873;51.132;16.848;2023-02-11T00:30:14;23.40;44.00
21425;DHT22;10873;51.132;16.848;2023-02-11T00:32:40;23.40;43.90
21425;DHT22;10873;51.132;16.848;2023-02-11T00:35:07;23.40;44.00
21425;DHT22;10873;51.132;16.848;2023-02-11T00:37:33;23.40;43.90
21425;DHT22;10873;51.132;16.848;2023-02-11T00:40:02;23.40;43.90
21425;DHT22;10873;51.132;16.848;2023-02-11T00:42:28;23.40;43.90
21425;DHT22;10873;51.132;16.848;2023-02-11T00:44:54;23.40;44.00
21425;DHT22;10873;51.132;16.848;2023-02-11T00:47:21;23.40;44.00
21425;DHT22;10873;51.132;16.848;2023-02-11T00:49:47;23.40;44.00
21425;DHT22;10873;51.132;16.848;2023-02-11T00:52:13;23.40;44.00
21425;DHT22;10873;51.132;16.848;2023-02-11T00:54:40;23.40;44.00
21425;DHT22;10873;51.132;16.848;2023-02-11T00:57:06;23.40;43.90
21425;DHT22;10873;51.132;16.848;2023-02-11T00:59:32;23.40;43.90
21425;DHT22;10873;51.132;16.848;2023-02-11T01:01:58;23.50;44.00
21425;DHT22;10873;51.132;16.848;2023-02-11T01:04:25;23.40;43.90
21425;DHT22;10873;51.132;16.848;2023-02-11T01:06:52;23.50;43.90
21425;DHT22;10873;51.132;16.848;2023-02-11T01:09:18;23.50;43.90
21425;DHT22;10873;51.132;16.848;2023-02-11T01:11:46;23.40;43.80
21425;DHT22;10873;51.132;16.848;2023-02-11T01:14:12;23.50;43.80
21425;DHT22;10873;51.132;16.848;2023-02-11T01:16:38;23.50;43.90
21425;DHT22;10873;51.132;16.848;2023-02-11T01:19:05;23.40;43.80
21425;DHT22;10873;51.132;16.848;2023-02-11T01:21:32;23.50;43.90
21425;DHT22;10873;51.132;16.848;2023-02-11T01:23:58;23.40;43.80
21425;DHT22;10873;51.132;16.848;2023-02-11T01:26:24;23.50;43.90
21425;DHT22;10873;51.132;16.848;2023-02-11T01:28:50;23.40;43.80
21425;DHT22;10873;51.132;16.848;2023-02-11T01:31:17;23.40;43.70
21425;DHT22;10873;51.132;16.848;2023-02-11T01:33:43;23.50;43.80
21425;DHT22;10873;51.132;16.848;2023-02-11T01:36:10;23.50;43.80
21425;DHT22;10873;51.132;16.848;2023-02-11T01:38:38;23.40;43.70
21425;DHT22;10873;51.132;16.848;2023-02-11T01:41:07;23.50;43.80
21425;DHT22;10873;51.132;16.848;2023-02-11T01:43:35;23.50;43.80
21425;DHT22;10873;51.132;16.848;2023-02-11T01:46:19;23.50;43.80
21425;DHT22;10873;51.132;16.848;2023-02-11T01:48:47;23.40;43.80
21425;DHT22;10873;51.132;16.848;2023-02-11T01:51:19;23.50;43.80
21425;DHT22;10873;51.132;16.848;2023-02-11T01:53:47;23.50;43.80
21425;DHT22;10873;51.132;16.848;2023-02-11T01:56:34;23.50;43.80
21425;DHT22;10873;51.132;16.848;2023-02-11T01:59:25;23.50;43.70
21425;DHT22;10873;51.132;16.848;2023-02-11T02:01:58;23.50;43.70
21425;DHT22;10873;51.132;16.848;2023-02-11T02:04:28;23.50;44.30
21425;DHT22;10873;51.132;16.848;2023-02-11T02:07:02;23.50;43.60
21425;DHT22;10873;51.132;16.848;2023-02-11T02:09:37;23.50;43.60
21425;DHT22;10873;51.132;16.848;2023-02-11T02:12:04;23.50;43.60
21425;DHT22;10873;51.132;16.848;2023-02-11T02:14:30;23.50;43.60
21425;DHT22;10873;51.132;16.848;2023-02-11T02:16:56;23.50;43.60
21425;DHT22;10873;51.132;16.848;2023-02-11T02:19:56;23.50;43.60
21425;DHT22;10873;51.132;16.848;2023-02-11T02:22:59;23.50;43.60
21425;DHT22;10873;51.132;16.848;2023-02-11T02:28:44;23.50;43.60
21425;DHT22;10873;51.132;16.848;2023-02-11T02:31:27;23.50;43.60
21425;DHT22;10873;51.132;16.848;2023-02-11T02:34:03;23.50;43.60
21425;DHT22;10873;51.132;16.848;2023-02-11T02:36:36;23.50;43.50
21425;DHT22;10873;51.132;16.848;2023-02-11T02:39:05;23.50;43.50
21425;DHT22;10873;51.132;16.848;2023-02-11T02:41:34;23.50;43.50
21425;DHT22;10873;51.132;16.848;2023-02-11T02:44:01;23.50;43.50
21425;DHT22;10873;51.132;16.848;2023-02-11T02:46:28;23.50;43.50
21425;DHT22;10873;51.132;16.848;2023-02-11T02:48:56;23.50;43.50
21425;DHT22;10873;51.132;16.848;2023-02-11T02:51:41;23.50;43.50
21425;DHT22;10873;51.132;16.848;2023-02-11T02:54:34;23.50;43.60
21425;DHT22;10873;51.132;16.848;2023-02-11T02:57:15;23.50;43.60
21425;DHT22;10873;51.132;16.848;2023-02-11T02:59:50;23.50;43.60
21425;DHT22;10873;51.132;16.848;2023-02-11T03:02:22;23.50;43.50
21425;DHT22;10873;51.132;16.848;2023-02-11T03:04:54;23.50;43.50
21425;DHT22;10873;51.132;16.848;2023-02-11T03:07:29;23.50;43.50
21425;DHT22;10873;51.132;16.848;2023-02-11T03:10:07;23.50;43.50
21425;DHT22;10873;51.132;16.848;2023-02-11T03:12:34;23.50;43.40
21425;DHT22;10873;51.132;16.848;2023-02-11T03:15:04;23.50;43.40
21425;DHT22;10873;51.132;16.848;2023-02-11T03:17:33;23.50;43.40
21425;DHT22;10873;51.132;16.848;2023-02-11T03:20:02;23.50;43.50
21425;DHT22;10873;51.132;16.848;2023-02-11T03:22:34;23.50;43.50
21425;DHT22;10873;51.132;16.848;2023-02-11T03:25:04;23.50;43.50
21425;DHT22;10873;51.132;16.848;2023-02-11T03:27:37;23.50;43.50
21425;DHT22;10873;51.132;16.848;2023-02-11T03:30:11;23.60;43.50
21425;DHT22;10873;51.132;16.848;2023-02-11T03:32:39;23.50;43.50
21425;DHT22;10873;51.132;16.848;2023-02-11T03:35:11;23.60;43.40
21425;DHT22;10873;51.132;16.848;2023-02-11T03:37:44;23.60;43.50
21425;DHT22;10873;51.132;16.848;2023-02-11T03:40:18;23.50;43.40
21425;DHT22;10873;51.132;16.848;2023-02-11T03:42:47;23.50;43.30
21425;DHT22;10873;51.132;16.848;2023-02-11T03:45:17;23.50;43.40
21425;DHT22;10873;51.132;16.848;2023-02-11T03:47:48;23.50;43.30
21425;DHT22;10873;51.132;16.848;2023-02-11T03:50:17;23.50;43.40
21425;DHT22;10873;51.132;16.848;2023-02-11T03:52:47;23.50;43.40
21425;DHT22;10873;51.132;16.848;2023-02-11T03:55:16;23.50;43.40
21425;DHT22;10873;51.132;16.848;2023-02-11T03:57:42;23.50;43.40
21425;DHT22;10873;51.132;16.848;2023-02-11T04:00:10;23.50;43.40
21425;DHT22;10873;51.132;16.848;2023-02-11T04:02:37;23.60;43.40
21425;DHT22;10873;51.132;16.848;2023-02-11T04:05:04;23.60;43.40
21425;DHT22;10873;51.132;16.848;2023-02-11T04:07:31;23.60;43.30
21425;DHT22;10873;51.132;16.848;2023-02-11T04:09:59;23.60;43.30
21425;DHT22;10873;51.132;16.848;2023-02-11T04:12:25;23.60;43.20
21425;DHT22;10873;51.132;16.848;2023-02-11T04:14:51;23.60;43.20
21425;DHT22;10873;51.132;16.848;2023-02-11T04:17:18;23.60;43.20
21425;DHT22;10873;51.132;16.848;2023-02-11T04:19:44;23.60;43.20
21425;DHT22;10873;51.132;16.848;2023-02-11T04:22:11;23.60;43.20
21425;DHT22;10873;51.132;16.848;2023-02-11T04:24:37;23.60;43.20
21425;DHT22;10873;51.132;16.848;2023-02-11T04:27:05;23.60;43.30
21425;DHT22;10873;51.132;16.848;2023-02-11T04:29:31;23.60;43.30
21425;DHT22;10873;51.132;16.848;2023-02-11T04:31:57;23.60;43.30
21425;DHT22;10873;51.132;16.848;2023-02-11T04:34:23;23.60;43.20
21425;DHT22;10873;51.132;16.848;2023-02-11T04:36:49;23.60;43.90
21425;DHT22;10873;51.132;16.848;2023-02-11T04:39:16;23.60;43.20
21425;DHT22;10873;51.132;16.848;2023-02-11T04:41:43;23.60;43.20
21425;DHT22;10873;51.132;16.848;2023-02-11T04:44:10;23.60;43.10
21425;DHT22;10873;51.132;16.848;2023-02-11T04:46:36;23.60;43.20
21425;DHT22;10873;51.132;16.848;2023-02-11T04:49:02;23.60;43.10
21425;DHT22;10873;51.132;16.848;2023-02-11T04:51:28;23.60;43.10
21425;DHT22;10873;51.132;16.848;2023-02-11T04:53:55;23.60;43.10
21425;DHT22;10873;51.132;16.848;2023-02-11T04:56:20;23.60;43.20
21425;DHT22;10873;51.132;16.848;2023-02-11T04:58:47;23.60;43.30
21425;DHT22;10873;51.132;16.848;2023-02-11T05:01:15;23.60;43.30
21425;DHT22;10873;51.132;16.848;2023-02-11T05:03:41;23.60;43.30
21425;DHT22;10873;51.132;16.848;2023-02-11T05:06:09;23.60;43.30
21425;DHT22;10873;51.132;16.848;2023-02-11T05:08:36;23.60;43.30
21425;DHT22;10873;51.132;16.848;2023-02-11T05:11:02;23.60;43.90
21425;DHT22;10873;51.132;16.848;2023-02-11T05:13:29;23.60;43.20
21425;DHT22;10873;51.132;16.848;2023-02-11T05:15:55;23.60;43.20
21425;DHT22;10873;51.132;16.848;2023-02-11T05:18:23;23.60;43.20
21425;DHT22;10873;51.132;16.848;2023-02-11T05:20:49;23.60;43.10
21425;DHT22;10873;51.132;16.848;2023-02-11T05:23:15;23.60;43.10
21425;DHT22;10873;51.132;16.848;2023-02-11T05:25:41;23.60;43.10
21425;DHT22;10873;51.132;16.848;2023-02-11T05:28:07;23.60;43.20
21425;DHT22;10873;51.132;16.848;2023-02-11T05:30:33;23.60;43.20
21425;DHT22;10873;51.132;16.848;2023-02-11T05:32:59;23.60;43.20
21425;DHT22;10873;51.132;16.848;2023-02-11T05:35:27;23.60;43.10
21425;DHT22;10873;51.132;16.848;2023-02-11T05:37:53;23.60;43.10
21425;DHT22;10873;51.132;16.848;2023-02-11T05:40:19;23.60;43.00
21425;DHT22;10873;51.132;16.848;2023-02-11T05:42:45;23.60;43.00
21425;DHT22;10873;51.132;16.848;2023-02-11T05:45:11;23.60;43.10
21425;DHT22;10873;51.132;16.848;2023-02-11T05:47:37;23.60;43.20
21425;DHT22;10873;51.132;16.848;2023-02-11T05:50:03;23.60;43.30
21425;DHT22;10873;51.132;16.848;2023-02-11T05:52:31;23.60;43.30
21425;DHT22;10873;51.132;16.848;2023-02-11T05:54:57;23.60;43.30
21425;DHT22;10873;51.132;16.848;2023-02-11T05:57:23;23.70;43.30
21425;DHT22;10873;51.132;16.848;2023-02-11T05:59:49;23.60;43.20
21425;DHT22;10873;51.132;16.848;2023-02-11T06:02:16;23.70;43.20
21425;DHT22;10873;51.132;16.848;2023-02-11T06:04:41;23.70;43.20
21425;DHT22;10873;51.132;16.848;2023-02-11T06:07:09;23.70;43.30
21425;DHT22;10873;51.132;16.848;2023-02-11T06:09:37;23.60;43.20
21425;DHT22;10873;51.132;16.848;2023-02-11T06:12:03;23.70;43.30
21425;DHT22;10873;51.132;16.848;2023-02-11T06:14:31;23.60;43.30
21425;DHT22;10873;51.132;16.848;2023-02-11T06:16:58;23.60;43.40
21425;DHT22;10873;51.132;16.848;2023-02-11T06:19:24;23.60;43.40
21425;DHT22;10873;51.132;16.848;2023-02-11T06:21:50;23.60;43.50
21425;DHT22;10873;51.132;16.848;2023-02-11T06:24:16;23.60;43.60
21425;DHT22;10873;51.132;16.848;2023-02-11T06:26:43;23.60;43.70
21425;DHT22;10873;51.132;16.848;2023-02-11T06:29:09;23.60;43.80
21425;DHT22;10873;51.132;16.848;2023-02-11T06:31:36;23.70;43.90
21425;DHT22;10873;51.132;16.848;2023-02-11T06:34:02;23.70;44.00
21425;DHT22;10873;51.132;16.848;2023-02-11T06:36:30;23.70;44.00
21425;DHT22;10873;51.132;16.848;2023-02-11T06:38:56;23.70;44.00
21425;DHT22;10873;51.132;16.848;2023-02-11T06:41:22;23.70;44.00
21425;DHT22;10873;51.132;16.848;2023-02-11T06:43:51;23.70;44.00
21425;DHT22;10873;51.132;16.848;2023-02-11T06:46:17;23.70;44.00
21425;DHT22;10873;51.132;16.848;2023-02-11T06:48:43;23.70;44.00
21425;DHT22;10873;51.132;16.848;2023-02-11T06:51:11;23.70;44.10
21425;DHT22;10873;51.132;16.848;2023-02-11T06:53:39;23.70;44.10
21425;DHT22;10873;51.132;16.848;2023-02-11T06:56:07;23.70;44.20
21425;DHT22;10873;51.132;16.848;2023-02-11T06:58:34;23.70;44.20
21425;DHT22;10873;51.132;16.848;2023-02-11T07:01:05;23.70;45.10
21425;DHT22;10873;51.132;16.848;2023-02-11T07:03:34;23.70;45.40
21425;DHT22;10873;51.132;16.848;2023-02-11T07:06:01;23.70;45.30
21425;DHT22;10873;51.132;16.848;2023-02-11T07:08:27;23.70;45.30
21425;DHT22;10873;51.132;16.848;2023-02-11T07:10:53;23.70;45.30
21425;DHT22;10873;51.132;16.848;2023-02-11T07:13:20;23.70;45.20
21425;DHT22;10873;51.132;16.848;2023-02-11T07:15:46;23.70;45.10
21425;DHT22;10873;51.132;16.848;2023-02-11T07:18:13;23.70;45.10
21425;DHT22;10873;51.132;16.848;2023-02-11T07:20:39;23.70;45.00
21425;DHT22;10873;51.132;16.848;2023-02-11T07:23:05;23.70;45.00
21425;DHT22;10873;51.132;16.848;2023-02-11T07:25:31;23.70;45.00
21425;DHT22;10873;51.132;16.848;2023-02-11T07:27:57;23.70;45.00
21425;DHT22;10873;51.132;16.848;2023-02-11T07:30:23;23.70;45.00
21425;DHT22;10873;51.132;16.848;2023-02-11T07:32:50;23.70;45.00
21425;DHT22;10873;51.132;16.848;2023-02-11T07:35:17;23.70;45.00
21425;DHT22;10873;51.132;16.848;2023-02-11T07:37:43;23.70;45.10
21425;DHT22;10873;51.132;16.848;2023-02-11T07:40:09;23.70;45.10
21425;DHT22;10873;51.132;16.848;2023-02-11T07:42:36;23.60;45.10
21425;DHT22;10873;51.132;16.848;2023-02-11T07:45:02;23.70;45.20
21425;DHT22;10873;51.132;16.848;2023-02-11T07:47:28;23.70;45.30
21425;DHT22;10873;51.132;16.848;2023-02-11T07:49:54;23.70;45.40
21425;DHT22;10873;51.132;16.848;2023-02-11T07:52:22;23.70;45.40
21425;DHT22;10873;51.132;16.848;2023-02-11T07:54:48;23.70;45.40
21425;DHT22;10873;51.132;16.848;2023-02-11T07:57:14;23.70;45.50
21425;DHT22;10873;51.132;16.848;2023-02-11T07:59:40;23.70;45.40
21425;DHT22;10873;51.132;16.848;2023-02-11T08:02:07;23.70;45.40
21425;DHT22;10873;51.132;16.848;2023-02-11T08:04:33;23.70;45.40
21425;DHT22;10873;51.132;16.848;2023-02-11T08:06:59;23.80;45.40
21425;DHT22;10873;51.132;16.848;2023-02-11T08:09:27;23.80;45.50
21425;DHT22;10873;51.132;16.848;2023-02-11T08:11:53;23.80;45.50
21425;DHT22;10873;51.132;16.848;2023-02-11T08:14:19;23.80;45.50
21425;DHT22;10873;51.132;16.848;2023-02-11T08:16:45;23.80;45.50
21425;DHT22;10873;51.132;16.848;2023-02-11T08:19:13;23.80;46.20
21425;DHT22;10873;51.132;16.848;2023-02-11T08:21:40;23.80;45.50
21425;DHT22;10873;51.132;16.848;2023-02-11T08:24:07;23.80;45.60
21425;DHT22;10873;51.132;16.848;2023-02-11T08:26:35;23.80;45.60
21425;DHT22;10873;51.132;16.848;2023-02-11T08:29:05;23.80;45.60
21425;DHT22;10873;51.132;16.848;2023-02-11T08:31:34;23.70;45.60
21425;DHT22;10873;51.132;16.848;2023-02-11T08:34:01;23.70;45.70
21425;DHT22;10873;51.132;16.848;2023-02-11T08:36:28;23.70;45.80
21425;DHT22;10873;51.132;16.848;2023-02-11T08:38:55;23.70;46.50
21425;DHT22;10873;51.132;16.848;2023-02-11T08:41:21;23.70;47.10
21425;DHT22;10873;51.132;16.848;2023-02-11T08:43:49;23.70;47.50
21425;DHT22;10873;51.132;16.848;2023-02-11T08:46:17;23.70;47.80
21425;DHT22;10873;51.132;16.848;2023-02-11T08:48:43;23.70;47.90
21425;DHT22;10873;51.132;16.848;2023-02-11T08:51:12;23.80;48.00
21425;DHT22;10873;51.132;16.848;2023-02-11T08:53:39;23.80;48.30
21425;DHT22;10873;51.132;16.848;2023-02-11T08:56:05;23.80;49.00
21425;DHT22;10873;51.132;16.848;2023-02-11T08:58:31;23.80;49.60
21425;DHT22;10873;51.132;16.848;2023-02-11T09:00:59;23.90;50.80
21425;DHT22;10873;51.132;16.848;2023-02-11T09:03:25;23.90;51.10
21425;DHT22;10873;51.132;16.848;2023-02-11T09:05:51;24.00;52.80
21425;DHT22;10873;51.132;16.848;2023-02-11T09:08:18;24.20;54.90
21425;DHT22;10873;51.132;16.848;2023-02-11T09:10:45;24.50;55.70
21425;DHT22;10873;51.132;16.848;2023-02-11T09:13:11;24.90;56.20
21425;DHT22;10873;51.132;16.848;2023-02-11T09:15:37;25.40;56.00
21425;DHT22;10873;51.132;16.848;2023-02-11T09:18:05;25.80;55.70
21425;DHT22;10873;51.132;16.848;2023-02-11T09:20:32;26.20;55.00
21425;DHT22;10873;51.132;16.848;2023-02-11T09:22:58;26.60;54.60
21425;DHT22;10873;51.132;16.848;2023-02-11T09:25:25;27.00;54.10
21425;DHT22;10873;51.132;16.848;2023-02-11T09:27:51;27.40;53.80
21425;DHT22;10873;51.132;16.848;2023-02-11T09:30:18;27.70;53.10
21425;DHT22;10873;51.132;16.848;2023-02-11T09:32:44;28.10;52.60
21425;DHT22;10873;51.132;16.848;2023-02-11T09:35:12;28.30;51.90
21425;DHT22;10873;51.132;16.848;2023-02-11T09:37:38;28.60;51.50
21425;DHT22;10873;51.132;16.848;2023-02-11T09:40:05;28.90;50.80
21425;DHT22;10873;51.132;16.848;2023-02-11T09:42:39;29.20;50.30
21425;DHT22;10873;51.132;16.848;2023-02-11T09:45:12;29.40;50.10
21425;DHT22;10873;51.132;16.848;2023-02-11T09:47:46;29.70;49.60
21425;DHT22;10873;51.132;16.848;2023-02-11T09:50:17;29.90;49.20
21425;DHT22;10873;51.132;16.848;2023-02-11T09:52:46;30.10;48.90
21425;DHT22;10873;51.132;16.848;2023-02-11T09:55:19;30.30;48.50
21425;DHT22;10873;51.132;16.848;2023-02-11T09:57:45;30.50;48.20
21425;DHT22;10873;51.132;16.848;2023-02-11T10:00:18;30.60;47.60
21425;DHT22;10873;51.132;16.848;2023-02-11T10:05:49;30.90;47.50
21425;DHT22;10873;51.132;16.848;2023-02-11T10:08:19;31.00;47.30
21425;DHT22;10873;51.132;16.848;2023-02-11T10:10:51;31.20;47.20
21425;DHT22;10873;51.132;16.848;2023-02-11T10:13:39;31.30;46.70
21425;DHT22;10873;51.132;16.848;2023-02-11T10:16:23;31.40;48.70
21425;DHT22;10873;51.132;16.848;2023-02-11T10:19:12;31.20;49.20
21425;DHT22;10873;51.132;16.848;2023-02-11T10:21:48;30.90;49.00
21425;DHT22;10873;51.132;16.848;2023-02-11T10:24:17;30.60;49.10
21425;DHT22;10873;51.132;16.848;2023-02-11T10:26:44;30.40;49.20
21425;DHT22;10873;51.132;16.848;2023-02-11T10:29:17;30.10;49.10
21425;DHT22;10873;51.132;16.848;2023-02-11T10:31:46;29.90;47.90
21425;DHT22;10873;51.132;16.848;2023-02-11T10:34:14;29.70;47.20
21425;DHT22;10873;51.132;16.848;2023-02-11T10:36:41;29.50;46.90
21425;DHT22;10873;51.132;16.848;2023-02-11T10:39:13;29.30;46.50
21425;DHT22;10873;51.132;16.848;2023-02-11T10:41:43;29.10;46.20
21425;DHT22;10873;51.132;16.848;2023-02-11T10:44:18;28.90;45.70
21425;DHT22;10873;51.132;16.848;2023-02-11T10:46:47;28.70;45.60
21425;DHT22;10873;51.132;16.848;2023-02-11T10:49:32;28.60;45.30
21425;DHT22;10873;51.132;16.848;2023-02-11T10:52:17;28.40;45.00
21425;DHT22;10873;51.132;16.848;2023-02-11T10:54:57;28.30;44.90
21425;DHT22;10873;51.132;16.848;2023-02-11T10:57:26;28.20;44.80
21425;DHT22;10873;51.132;16.848;2023-02-11T10:59:57;28.10;44.70
21425;DHT22;10873;51.132;16.848;2023-02-11T11:02:27;28.00;44.60
21425;DHT22;10873;51.132;16.848;2023-02-11T11:04:58;27.90;44.50
21425;DHT22;10873;51.132;16.848;2023-02-11T11:07:27;27.80;44.40
21425;DHT22;10873;51.132;16.848;2023-02-11T11:09:57;27.70;44.40
21425;DHT22;10873;51.132;16.848;2023-02-11T11:12:27;27.60;44.40
21425;DHT22;10873;51.132;16.848;2023-02-11T11:14:55;27.50;44.30
21425;DHT22;10873;51.132;16.848;2023-02-11T11:17:21;27.40;44.30
21425;DHT22;10873;51.132;16.848;2023-02-11T11:19:47;27.30;44.20
21425;DHT22;10873;51.132;16.848;2023-02-11T11:22:19;27.20;44.20
21425;DHT22;10873;51.132;16.848;2023-02-11T11:24:46;27.20;44.20
21425;DHT22;10873;51.132;16.848;2023-02-11T11:27:23;27.10;44.20
21425;DHT22;10873;51.132;16.848;2023-02-11T11:29:51;27.00;44.10
21425;DHT22;10873;51.132;16.848;2023-02-11T11:32:20;26.90;45.80
21425;DHT22;10873;51.132;16.848;2023-02-11T11:34:49;26.90;47.20
21425;DHT22;10873;51.132;16.848;2023-02-11T11:37:20;26.80;48.10
21425;DHT22;10873;51.132;16.848;2023-02-11T11:39:56;26.70;48.70
21425;DHT22;10873;51.132;16.848;2023-02-11T11:42:26;26.70;49.30
21425;DHT22;10873;51.132;16.848;2023-02-11T11:44:58;26.70;49.50
21425;DHT22;10873;51.132;16.848;2023-02-11T11:47:28;26.70;50.20
21425;DHT22;10873;51.132;16.848;2023-02-11T11:52:52;27.20;53.30
21425;DHT22;10873;51.132;16.848;2023-02-11T11:55:21;27.70;53.60
21425;DHT22;10873;51.132;16.848;2023-02-11T11:57:51;28.10;53.80
21425;DHT22;10873;51.132;16.848;2023-02-11T12:00:19;28.50;53.90
21425;DHT22;10873;51.132;16.848;2023-02-11T12:03:17;28.80;54.30
21425;DHT22;10873;51.132;16.848;2023-02-11T12:05:59;29.20;54.20
21425;DHT22;10873;51.132;16.848;2023-02-11T12:08:36;29.60;54.50
21425;DHT22;10873;51.132;16.848;2023-02-11T12:11:12;29.90;54.40
21425;DHT22;10873;51.132;16.848;2023-02-11T12:13:52;30.10;54.10
21425;DHT22;10873;51.132;16.848;2023-02-11T12:16:28;30.30;57.00
21425;DHT22;10873;51.132;16.848;2023-02-11T12:19:13;30.20;56.80
21425;DHT22;10873;51.132;16.848;2023-02-11T12:21:49;30.10;54.10
21425;DHT22;10873;51.132;16.848;2023-02-11T12:24:33;30.20;54.20
21425;DHT22;10873;51.132;16.848;2023-02-11T12:27:04;30.40;53.80
21425;DHT22;10873;51.132;16.848;2023-02-11T12:29:44;30.60;53.00
21425;DHT22;10873;51.132;16.848;2023-02-11T12:32:24;30.80;52.80
21425;DHT22;10873;51.132;16.848;2023-02-11T12:35:22;31.00;52.30
21425;DHT22;10873;51.132;16.848;2023-02-11T12:38:15;31.30;51.80
21425;DHT22;10873;51.132;16.848;2023-02-11T12:40:45;31.40;51.20
21425;DHT22;10873;51.132;16.848;2023-02-11T12:43:19;31.60;50.60
21425;DHT22;10873;51.132;16.848;2023-02-11T12:46:08;31.80;50.30
21425;DHT22;10873;51.132;16.848;2023-02-11T12:49:04;31.90;49.90
21425;DHT22;10873;51.132;16.848;2023-02-11T12:51:43;32.10;49.70
21425;DHT22;10873;51.132;16.848;2023-02-11T12:54:21;32.20;48.90
21425;DHT22;10873;51.132;16.848;2023-02-11T12:56:52;32.30;52.00
21425;DHT22;10873;51.132;16.848;2023-02-11T12:59:30;32.00;52.10
21425;DHT22;10873;51.132;16.848;2023-02-11T13:02:05;31.90;50.00
21425;DHT22;10873;51.132;16.848;2023-02-11T13:04:39;31.90;49.60
21425;DHT22;10873;51.132;16.848;2023-02-11T13:07:11;32.00;49.30
21425;DHT22;10873;51.132;16.848;2023-02-11T13:09:43;32.10;48.80
21425;DHT22;10873;51.132;16.848;2023-02-11T13:12:12;32.30;48.30
21425;DHT22;10873;51.132;16.848;2023-02-11T13:15:00;32.30;49.70
21425;DHT22;10873;51.132;16.848;2023-02-11T13:17:33;32.20;50.30
21425;DHT22;10873;51.132;16.848;2023-02-11T13:20:06;31.90;50.30
21425;DHT22;10873;51.132;16.848;2023-02-11T13:22:38;31.60;50.90
21425;DHT22;10873;51.132;16.848;2023-02-11T13:25:17;31.40;50.70
21425;DHT22;10873;51.132;16.848;2023-02-11T13:27:50;31.10;50.20
21425;DHT22;10873;51.132;16.848;2023-02-11T13:30:26;30.90;48.90
21425;DHT22;10873;51.132;16.848;2023-02-11T13:33:19;30.70;48.30
21425;DHT22;10873;51.132;16.848;2023-02-11T13:35:48;30.40;47.40
21425;DHT22;10873;51.132;16.848;2023-02-11T13:38:18;30.20;46.90
21425;DHT22;10873;51.132;16.848;2023-02-11T13:40:58;30.00;46.60
21425;DHT22;10873;51.132;16.848;2023-02-11T13:43:25;29.80;46.20
21425;DHT22;10873;51.132;16.848;2023-02-11T13:45:58;29.60;45.90
21425;DHT22;10873;51.132;16.848;2023-02-11T13:48:28;29.50;45.70
21425;DHT22;10873;51.132;16.848;2023-02-11T13:50:58;29.30;45.50
21425;DHT22;10873;51.132;16.848;2023-02-11T13:53:26;29.20;45.30
21425;DHT22;10873;51.132;16.848;2023-02-11T13:56:05;29.10;45.30
21425;DHT22;10873;51.132;16.848;2023-02-11T13:58:35;29.00;45.10
21425;DHT22;10873;51.132;16.848;2023-02-11T14:01:05;28.80;45.00
21425;DHT22;10873;51.132;16.848;2023-02-11T14:03:37;28.70;44.70
21425;DHT22;10873;51.132;16.848;2023-02-11T14:06:25;28.70;44.70
21425;DHT22;10873;51.132;16.848;2023-02-11T14:12:35;28.40;44.40
21425;DHT22;10873;51.132;16.848;2023-02-11T14:15:19;28.30;44.30
21425;DHT22;10873;51.132;16.848;2023-02-11T14:17:45;28.20;44.30
21425;DHT22;10873;51.132;16.848;2023-02-11T14:20:33;28.10;44.20
21425;DHT22;10873;51.132;16.848;2023-02-11T14:23:00;28.00;44.20
21425;DHT22;10873;51.132;16.848;2023-02-11T14:25:26;28.00;44.30
21425;DHT22;10873;51.132;16.848;2023-02-11T14:27:56;27.90;44.20
21425;DHT22;10873;51.132;16.848;2023-02-11T14:30:33;27.80;44.20
21425;DHT22;10873;51.132;16.848;2023-02-11T14:33:18;27.70;44.20
21425;DHT22;10873;51.132;16.848;2023-02-11T14:35:56;27.70;44.30
21425;DHT22;10873;51.132;16.848;2023-02-11T14:38:30;27.60;44.30
21425;DHT22;10873;51.132;16.848;2023-02-11T14:41:04;27.50;44.30
21425;DHT22;10873;51.132;16.848;2023-02-11T14:43:35;27.40;44.20
21425;DHT22;10873;51.132;16.848;2023-02-11T14:46:03;27.40;44.30
21425;DHT22;10873;51.132;16.848;2023-02-11T14:48:31;27.30;44.20
21425;DHT22;10873;51.132;16.848;2023-02-11T14:51:04;27.30;44.30
21425;DHT22;10873;51.132;16.848;2023-02-11T14:53:31;27.20;44.30
21425;DHT22;10873;51.132;16.848;2023-02-11T14:55:59;27.20;44.40
21425;DHT22;10873;51.132;16.848;2023-02-11T14:58:26;27.10;44.40
21425;DHT22;10873;51.132;16.848;2023-02-11T15:00:55;27.10;44.40
21425;DHT22;10873;51.132;16.848;2023-02-11T15:03:40;27.00;44.50
21425;DHT22;10873;51.132;16.848;2023-02-11T15:06:16;27.00;44.60
21425;DHT22;10873;51.132;16.848;2023-02-11T15:08:46;27.00;44.60
21425;DHT22;10873;51.132;16.848;2023-02-11T15:11:15;26.90;44.70
21425;DHT22;10873;51.132;16.848;2023-02-11T15:13:42;26.90;44.70
21425;DHT22;10873;51.132;16.848;2023-02-11T15:16:13;26.80;44.70
21425;DHT22;10873;51.132;16.848;2023-02-11T15:18:45;26.80;44.70
21425;DHT22;10873;51.132;16.848;2023-02-11T15:21:19;26.80;44.70
21425;DHT22;10873;51.132;16.848;2023-02-11T15:23:54;26.70;44.70
21425;DHT22;10873;51.132;16.848;2023-02-11T15:26:21;26.70;44.80
21425;DHT22;10873;51.132;16.848;2023-02-11T15:28:47;26.70;44.80
21425;DHT22;10873;51.132;16.848;2023-02-11T15:31:24;26.70;44.90
21425;DHT22;10873;51.132;16.848;2023-02-11T15:33:50;26.60;45.70
21425;DHT22;10873;51.132;16.848;2023-02-11T15:36:20;26.60;45.80
21425;DHT22;10873;51.132;16.848;2023-02-11T15:39:16;26.60;46.00
21425;DHT22;10873;51.132;16.848;2023-02-11T15:41:42;26.60;46.00
21425;DHT22;10873;51.132;16.848;2023-02-11T15:44:27;26.60;46.00
21425;DHT22;10873;51.132;16.848;2023-02-11T15:46:54;26.60;46.00